Time;durP1;ratioP1;P1;durP2;ratioP2;P2;SDS_P1;SDS_P2;PMS_P1;PMS_P2;Temp;Humidity;BMP_temperature;BMP_pressure;BME280_temperature;BME280_humidity;BME280_pressure;Samples;Min_cycle;Max_cycle;Signal;HPM_P1;HPM_P2
2022/12/03 00:00:04;;;;;;;51.97;24.05;;;2.30;99.90;;;;;;5019553;28;20505;-66
2022/12/03 00:02:38;;;;;;;52.55;24.73;;;2.30;99.90;;;;;;5017411;28;20085;-66
2022/12/03 00:05:06;;;;;;;56.22;24.95;;;2.30;99.90;;;;;;5026959;28;20511;-67
2022/12/03 00:07:34;;;;;;;50.10;24.00;;;2.30;99.90;;;;;;5013195;28;20530;-66
2022/12/03 00:10:03;;;;;;;51.03;25.17;;;2.30;99.90;;;;;;5008228;28;20045;-66
2022/12/03 00:12:31;;;;;;;51.45;24.33;;;2.30;99.90;;;;;;5021027;28;20046;-65
2022/12/03 00:14:59;;;;;;;47.65;23.90;;;2.30;99.90;;;;;;5007807;28;20115;-65
2022/12/03 00:17:26;;;;;;;55.75;25.88;;;2.30;99.90;;;;;;5008053;28;20473;-66
2022/12/03 00:19:53;;;;;;;47.70;24.13;;;2.30;99.90;;;;;;5010589;28;20419;-68
2022/12/03 00:22:21;;;;;;;51.60;24.42;;;2.30;99.90;;;;;;5021053;28;20416;-67
2022/12/03 00:24:48;;;;;;;52.00;25.38;;;2.30;99.90;;;;;;5012378;28;20049;-66
2022/12/03 00:27:15;;;;;;;50.83;25.17;;;2.30;99.90;;;;;;5021526;28;20132;-66
2022/12/03 00:29:43;;;;;;;50.72;24.38;;;2.30;99.90;;;;;;5011028;28;20104;-66
2022/12/03 00:32:10;;;;;;;49.33;23.92;;;2.30;99.90;;;;;;5019804;28;20049;-66
2022/12/03 00:34:37;;;;;;;51.95;25.42;;;2.20;99.90;;;;;;4988226;28;20515;-67
2022/12/03 00:37:05;;;;;;;56.33;25.63;;;2.30;99.90;;;;;;5010580;28;20045;-67
2022/12/03 00:39:33;;;;;;;48.13;22.95;;;2.30;99.90;;;;;;5011914;28;20080;-66
2022/12/03 00:42:00;;;;;;;52.67;25.75;;;2.30;99.90;;;;;;5013573;28;20100;-67
2022/12/03 00:44:27;;;;;;;56.40;26.02;;;2.30;99.90;;;;;;5019569;28;20045;-66
2022/12/03 00:46:54;;;;;;;53.03;24.98;;;2.30;99.90;;;;;;5021763;28;20159;-66
2022/12/03 00:49:22;;;;;;;54.30;25.00;;;2.30;99.90;;;;;;5027389;28;20061;-66
2022/12/03 00:51:49;;;;;;;53.80;25.33;;;2.30;99.90;;;;;;5031108;28;20042;-67
2022/12/03 00:54:17;;;;;;;58.90;26.02;;;2.30;99.90;;;;;;5030888;28;20073;-66
2022/12/03 00:56:44;;;;;;;52.20;24.63;;;2.30;99.90;;;;;;5019675;28;20068;-66
2022/12/03 00:59:11;;;;;;;48.65;23.92;;;2.20;99.90;;;;;;5025997;28;20037;-66
2022/12/03 01:01:39;;;;;;;53.92;25.10;;;2.20;99.90;;;;;;5032037;28;20056;-67
2022/12/03 01:04:07;;;;;;;51.58;25.83;;;2.20;99.90;;;;;;5024845;28;20080;-66
2022/12/03 01:06:34;;;;;;;57.70;27.20;;;2.20;99.90;;;;;;5029676;28;20037;-65
2022/12/03 01:09:02;;;;;;;54.20;26.10;;;2.20;99.90;;;;;;5030450;28;20658;-65
2022/12/03 01:11:39;;;;;;;56.20;25.90;;;2.20;99.90;;;;;;5024230;28;20505;-65
2022/12/03 01:14:14;;;;;;;51.95;25.25;;;2.20;99.90;;;;;;5017362;28;20042;-66
2022/12/03 01:16:42;;;;;;;51.05;25.48;;;2.20;99.90;;;;;;5029210;28;20079;-66
2022/12/03 01:19:14;;;;;;;55.17;25.55;;;2.30;99.90;;;;;;5020802;28;20473;-66
2022/12/03 01:21:43;;;;;;;54.42;25.90;;;2.30;99.90;;;;;;5025738;28;20049;-66
2022/12/03 01:24:11;;;;;;;51.15;25.38;;;2.30;99.90;;;;;;5012994;28;20041;-66
2022/12/03 01:26:38;;;;;;;51.33;25.95;;;2.30;99.90;;;;;;5014214;28;20538;-66
2022/12/03 01:29:06;;;;;;;53.13;25.90;;;2.30;99.90;;;;;;5024569;28;20045;-65
2022/12/03 01:34:19;;;;;;;50.67;25.42;;;2.30;99.90;;;;;;5020599;28;20046;-66
2022/12/03 01:36:46;;;;;;;57.67;25.63;;;2.30;99.90;;;;;;5017891;28;20471;-66
2022/12/03 01:39:14;;;;;;;55.45;25.80;;;2.30;99.90;;;;;;5010081;28;20041;-66
2022/12/03 01:41:41;;;;;;;53.50;26.17;;;2.30;99.90;;;;;;5018939;28;20050;-66
2022/12/03 01:44:29;;;;;;;54.88;25.67;;;2.30;99.90;;;;;;5012532;28;20056;-64
2022/12/03 01:46:58;;;;;;;54.90;25.55;;;2.30;99.90;;;;;;5021827;28;20516;-65
2022/12/03 01:49:38;;;;;;;51.58;25.60;;;2.30;99.90;;;;;;5026928;28;20068;-66
2022/12/03 01:52:16;;;;;;;52.88;26.55;;;2.30;99.90;;;;;;5028581;28;20064;-65
2022/12/03 01:54:52;;;;;;;53.17;25.77;;;2.30;99.90;;;;;;5017713;28;20411;-66
2022/12/03 01:57:40;;;;;;;54.47;25.55;;;2.30;99.90;;;;;;5024952;28;20132;-65
2022/12/03 02:00:16;;;;;;;55.70;27.08;;;2.30;99.90;;;;;;5021103;28;20053;-66
2022/12/03 02:02:44;;;;;;;55.15;24.38;;;2.30;99.90;;;;;;5014333;28;20050;-66
2022/12/03 02:05:21;;;;;;;55.72;25.95;;;2.30;99.90;;;;;;5021044;28;20041;-66
2022/12/03 02:07:49;;;;;;;54.20;26.33;;;2.30;99.90;;;;;;5019050;28;20045;-66
2022/12/03 02:10:19;;;;;;;50.00;24.67;;;2.30;99.90;;;;;;5015817;28;20076;-65
2022/12/03 02:12:50;;;;;;;52.42;26.63;;;2.30;99.90;;;;;;5019859;28;20497;-67
2022/12/03 02:15:17;;;;;;;52.08;25.08;;;2.30;99.90;;;;;;5022421;28;20053;-66
2022/12/03 02:17:45;;;;;;;50.60;24.13;;;2.30;99.90;;;;;;5022700;28;20403;-67
2022/12/03 02:20:13;;;;;;;47.88;23.33;;;2.30;99.90;;;;;;5009032;28;20476;-65
2022/12/03 02:22:51;;;;;;;54.40;25.92;;;2.30;99.90;;;;;;5029699;28;20092;-65
2022/12/03 02:25:28;;;;;;;52.47;24.25;;;2.30;99.90;;;;;;5019407;28;20041;-65
2022/12/03 02:27:55;;;;;;;50.55;25.50;;;2.30;99.90;;;;;;5028236;28;20499;-65
2022/12/03 02:30:24;;;;;;;54.10;25.83;;;2.30;99.90;;;;;;5015131;28;20045;-66
2022/12/03 02:32:53;;;;;;;50.88;25.45;;;2.30;99.90;;;;;;5016616;28;20500;-66
2022/12/03 02:35:23;;;;;;;49.03;24.52;;;2.20;99.90;;;;;;5020016;28;20068;-65
2022/12/03 02:37:59;;;;;;;48.58;23.75;;;2.30;99.90;;;;;;5023037;28;20045;-65
2022/12/03 02:40:29;;;;;;;45.05;22.23;;;2.20;99.90;;;;;;5024306;28;20099;-66
2022/12/03 02:43:00;;;;;;;53.30;26.40;;;2.20;99.90;;;;;;5014689;28;20049;-67
2022/12/03 02:45:37;;;;;;;50.88;25.40;;;2.20;99.90;;;;;;5009716;28;20056;-66
2022/12/03 02:48:18;;;;;;;49.60;24.35;;;2.20;99.90;;;;;;5010051;28;20050;-66
2022/12/03 02:50:51;;;;;;;53.88;25.42;;;2.10;99.90;;;;;;5023963;28;20128;-68
2022/12/03 02:53:25;;;;;;;48.30;24.35;;;2.10;99.90;;;;;;5023212;28;20681;-67
2022/12/03 02:55:54;;;;;;;50.50;24.50;;;2.20;99.90;;;;;;5017150;28;20526;-66
2022/12/03 02:58:23;;;;;;;51.58;25.15;;;2.20;99.90;;;;;;5028443;28;20072;-67
2022/12/03 03:00:52;;;;;;;51.63;24.85;;;2.20;99.90;;;;;;5027628;28;20053;-66
2022/12/03 03:03:22;;;;;;;49.25;24.95;;;2.20;99.90;;;;;;5022988;28;20050;-67
2022/12/03 03:05:50;;;;;;;51.72;24.95;;;2.20;99.90;;;;;;5012980;28;20075;-67
2022/12/03 03:08:18;;;;;;;57.70;26.92;;;2.30;99.90;;;;;;5019513;28;20082;-67
2022/12/03 03:10:46;;;;;;;61.15;25.77;;;2.20;99.90;;;;;;5014241;28;20074;-66
2022/12/03 03:13:16;;;;;;;53.10;25.42;;;2.30;99.90;;;;;;5017050;28;20117;-66
2022/12/03 03:15:44;;;;;;;53.45;25.38;;;2.30;99.90;;;;;;5010905;28;20496;-67
2022/12/03 03:18:13;;;;;;;53.55;25.70;;;2.30;99.90;;;;;;5001024;28;20127;-67
2022/12/03 03:20:40;;;;;;;50.95;25.20;;;2.30;99.90;;;;;;5016699;28;20053;-68
2022/12/03 03:23:11;;;;;;;45.65;22.98;;;2.20;99.90;;;;;;5024517;28;20389;-66
2022/12/03 03:25:41;;;;;;;47.88;24.60;;;2.30;99.90;;;;;;5016088;28;20041;-66
2022/12/03 03:28:09;;;;;;;52.70;25.02;;;2.20;99.90;;;;;;5019255;28;20045;-66
2022/12/03 03:30:39;;;;;;;54.60;26.25;;;2.20;99.90;;;;;;5018130;28;20403;-66
2022/12/03 03:33:06;;;;;;;54.10;25.02;;;2.20;99.90;;;;;;5028866;28;20377;-66
2022/12/03 03:35:35;;;;;;;50.67;24.45;;;2.20;99.90;;;;;;5011104;28;20042;-67
2022/12/03 03:38:03;;;;;;;57.85;26.30;;;2.30;99.90;;;;;;5027834;28;20045;-66
2022/12/03 03:40:30;;;;;;;52.30;25.98;;;2.30;99.90;;;;;;5010056;28;20396;-66
2022/12/03 03:42:59;;;;;;;53.28;24.77;;;2.30;99.90;;;;;;5019245;28;20408;-66
2022/12/03 03:45:26;;;;;;;55.42;26.38;;;2.30;99.90;;;;;;5019579;28;20558;-66
2022/12/03 03:47:57;;;;;;;53.08;26.52;;;2.30;99.90;;;;;;5027152;28;20045;-66
2022/12/03 03:50:28;;;;;;;55.67;26.63;;;2.30;99.90;;;;;;5000540;28;20054;-66
2022/12/03 03:52:57;;;;;;;55.08;25.63;;;2.30;99.90;;;;;;5024311;28;20038;-65
2022/12/03 03:55:25;;;;;;;50.88;24.67;;;2.30;99.90;;;;;;5016164;28;20072;-65
2022/12/03 03:57:52;;;;;;;54.90;26.63;;;2.30;99.90;;;;;;5022647;28;20659;-65
2022/12/03 04:00:19;;;;;;;50.83;24.23;;;2.30;99.90;;;;;;5010524;28;20045;-66
2022/12/03 04:02:46;;;;;;;53.60;26.23;;;2.30;99.90;;;;;;5021056;28;20045;-65
2022/12/03 04:05:19;;;;;;;53.08;26.05;;;2.30;99.90;;;;;;5024234;28;20041;-66
2022/12/03 04:07:46;;;;;;;56.60;26.77;;;2.30;99.90;;;;;;5021632;28;20049;-65
2022/12/03 04:13:01;;;;;;;50.10;24.77;;;2.30;99.90;;;;;;5015485;28;20153;-66
2022/12/03 04:15:28;;;;;;;49.78;25.38;;;2.30;99.90;;;;;;5023192;28;20050;-65
2022/12/03 04:20:41;;;;;;;50.75;24.90;;;2.30;99.90;;;;;;5014630;28;20046;-65
2022/12/03 04:23:09;;;;;;;51.90;25.65;;;2.30;99.90;;;;;;5028462;28;20101;-66
2022/12/03 04:36:39;;;;;;;55.75;25.35;;;2.30;99.90;;;;;;5031493;28;20049;-65
2022/12/03 04:39:07;;;;;;;52.58;26.77;;;2.20;99.90;;;;;;5032038;28;20041;-66
2022/12/03 04:41:34;;;;;;;50.08;25.67;;;2.20;99.90;;;;;;5022549;28;20136;-66
2022/12/03 04:46:47;;;;;;;50.88;24.65;;;2.20;99.90;;;;;;5019715;28;20054;-66
2022/12/03 04:49:14;;;;;;;54.38;26.20;;;2.30;99.90;;;;;;5026458;28;20516;-66
2022/12/03 04:51:42;;;;;;;48.63;24.35;;;2.20;99.90;;;;;;5029346;28;20115;-65
2022/12/03 04:54:09;;;;;;;54.47;26.13;;;2.20;99.90;;;;;;5027196;28;20046;-67
2022/12/03 04:56:36;;;;;;;54.38;26.30;;;2.20;99.90;;;;;;5027053;28;20129;-65
2022/12/03 04:59:03;;;;;;;54.05;26.02;;;2.30;99.90;;;;;;5009405;28;20100;-66
2022/12/03 05:01:31;;;;;;;49.75;24.92;;;2.30;99.90;;;;;;5030234;28;20064;-66
2022/12/03 05:03:58;;;;;;;47.97;25.15;;;2.30;99.90;;;;;;5018474;28;20053;-65
2022/12/03 05:06:25;;;;;;;50.55;24.67;;;2.30;99.90;;;;;;5005526;28;20104;-66
2022/12/03 05:08:53;;;;;;;51.97;25.15;;;2.20;99.90;;;;;;5013321;28;20104;-66
2022/12/03 05:11:20;;;;;;;52.65;25.30;;;2.20;99.90;;;;;;5017177;28;20537;-66
2022/12/03 05:13:47;;;;;;;51.20;24.13;;;2.30;99.90;;;;;;5015158;28;20046;-66
2022/12/03 05:16:14;;;;;;;51.78;24.70;;;2.30;99.90;;;;;;5024879;28;20044;-65
2022/12/03 05:18:42;;;;;;;57.85;26.63;;;2.30;99.90;;;;;;5022012;28;20455;-65
2022/12/03 05:21:09;;;;;;;50.13;24.75;;;2.30;99.90;;;;;;5024571;28;20493;-65
2022/12/03 05:23:36;;;;;;;49.85;25.10;;;2.30;99.90;;;;;;5021896;28;20044;-66
2022/12/03 05:26:03;;;;;;;53.55;26.33;;;2.30;99.90;;;;;;5017521;28;20511;-67
2022/12/03 05:28:32;;;;;;;49.63;25.63;;;2.30;99.90;;;;;;5028280;28;20454;-66
2022/12/03 05:31:00;;;;;;;49.05;24.58;;;2.30;99.90;;;;;;5009421;28;20515;-65
2022/12/03 05:33:27;;;;;;;52.28;25.58;;;2.30;99.90;;;;;;5010486;28;20064;-65
2022/12/03 05:35:54;;;;;;;51.10;26.08;;;2.30;99.90;;;;;;5017624;28;20048;-65
2022/12/03 05:38:22;;;;;;;48.65;24.33;;;2.40;99.90;;;;;;5019246;28;20045;-65
2022/12/03 05:40:49;;;;;;;47.38;25.02;;;2.30;99.90;;;;;;5005995;28;20056;-65
2022/12/03 05:43:16;;;;;;;45.78;24.40;;;2.30;99.90;;;;;;5025046;28;20045;-65
2022/12/03 05:45:43;;;;;;;46.10;25.05;;;2.40;99.90;;;;;;5016093;28;20045;-64
2022/12/03 05:48:14;;;;;;;47.75;24.80;;;2.40;99.90;;;;;;5031274;28;20033;-66
2022/12/03 05:50:44;;;;;;;46.60;24.30;;;2.30;99.90;;;;;;5030578;28;20046;-67
2022/12/03 05:53:16;;;;;;;52.50;26.42;;;2.30;99.90;;;;;;5012116;28;20536;-65
2022/12/03 05:55:43;;;;;;;54.65;27.50;;;2.40;99.90;;;;;;5026492;28;20416;-66
2022/12/03 05:58:10;;;;;;;53.75;25.88;;;2.30;99.90;;;;;;5029175;28;20033;-66
2022/12/03 06:00:38;;;;;;;44.53;23.80;;;2.30;99.90;;;;;;5016745;28;20042;-66
2022/12/03 06:03:09;;;;;;;52.80;26.57;;;2.30;99.90;;;;;;5027530;28;20428;-66
2022/12/03 06:05:37;;;;;;;47.90;24.02;;;2.40;99.90;;;;;;5001519;28;20169;-66
2022/12/03 06:08:04;;;;;;;47.67;24.55;;;2.40;99.90;;;;;;5026530;28;20598;-66
2022/12/03 06:10:32;;;;;;;46.13;25.25;;;2.40;99.90;;;;;;5031746;28;20073;-66
2022/12/03 06:12:59;;;;;;;48.63;24.73;;;2.40;99.90;;;;;;5023330;28;20530;-67
2022/12/03 06:15:27;;;;;;;49.50;24.20;;;2.30;99.90;;;;;;5018226;28;20491;-66
2022/12/03 06:17:54;;;;;;;48.15;24.45;;;2.40;99.90;;;;;;5023310;28;20038;-66
2022/12/03 06:20:21;;;;;;;44.70;22.80;;;2.40;99.90;;;;;;5009280;28;20041;-67
2022/12/03 06:22:49;;;;;;;50.00;25.02;;;2.40;99.90;;;;;;5017341;28;20038;-67
2022/12/03 06:25:16;;;;;;;46.42;23.92;;;2.40;99.90;;;;;;5028712;28;20515;-67
2022/12/03 06:27:43;;;;;;;46.90;23.55;;;2.40;99.90;;;;;;5012044;28;20053;-66
2022/12/03 06:30:13;;;;;;;51.72;24.50;;;2.40;99.90;;;;;;5026002;28;20041;-67
2022/12/03 06:32:40;;;;;;;49.75;25.20;;;2.40;99.90;;;;;;5019896;28;20492;-67
2022/12/03 06:35:08;;;;;;;52.95;25.50;;;2.40;99.90;;;;;;5018474;28;20046;-66
2022/12/03 06:37:35;;;;;;;49.17;25.45;;;2.40;99.90;;;;;;5006844;28;20052;-67
2022/12/03 06:40:03;;;;;;;50.13;24.10;;;2.40;99.90;;;;;;5024307;28;20046;-66
2022/12/03 06:42:30;;;;;;;47.20;25.23;;;2.40;99.90;;;;;;5021830;28;20049;-65
2022/12/03 06:44:57;;;;;;;49.30;25.17;;;2.40;99.90;;;;;;5000837;28;20057;-67
2022/12/03 06:47:24;;;;;;;47.92;24.55;;;2.30;99.90;;;;;;5014249;28;20048;-66
2022/12/03 06:49:52;;;;;;;46.25;24.48;;;2.40;99.90;;;;;;5021687;28;20045;-66
2022/12/03 06:52:19;;;;;;;46.92;24.40;;;2.40;99.90;;;;;;5020117;28;20573;-69
2022/12/03 06:54:46;;;;;;;47.33;23.73;;;2.40;99.90;;;;;;5019523;28;20037;-68
2022/12/03 06:57:13;;;;;;;45.35;23.77;;;2.40;99.90;;;;;;5019783;28;20053;-66
2022/12/03 06:59:41;;;;;;;47.53;24.52;;;2.40;99.90;;;;;;5016319;28;20113;-66
2022/12/03 07:02:10;;;;;;;43.80;22.13;;;2.40;99.90;;;;;;5027809;28;20045;-66
2022/12/03 07:04:37;;;;;;;49.28;23.67;;;2.40;99.90;;;;;;5027203;28;20049;-67
2022/12/03 07:07:12;;;;;;;48.03;24.35;;;2.40;99.90;;;;;;5018063;28;20033;-67
2022/12/03 07:09:39;;;;;;;45.47;23.67;;;2.40;99.90;;;;;;5009515;28;20049;-66
2022/12/03 07:12:06;;;;;;;46.38;24.50;;;2.40;99.90;;;;;;5012248;28;20045;-66
2022/12/03 07:14:33;;;;;;;47.83;24.13;;;2.40;99.90;;;;;;5027585;28;20500;-68
2022/12/03 07:17:01;;;;;;;52.67;25.90;;;2.40;99.90;;;;;;5027531;28;20541;-66
2022/12/03 07:19:28;;;;;;;49.95;25.92;;;2.40;99.90;;;;;;5028833;28;20354;-65
2022/12/03 07:21:59;;;;;;;47.38;24.58;;;2.40;99.90;;;;;;5013083;28;20072;-70
2022/12/03 07:24:27;;;;;;;48.47;25.30;;;2.40;99.90;;;;;;5016475;28;20428;-68
2022/12/03 07:26:54;;;;;;;46.95;23.83;;;2.40;99.90;;;;;;5017247;28;20420;-69
2022/12/03 07:29:21;;;;;;;44.55;23.48;;;2.40;99.90;;;;;;5025707;28;20053;-68
2022/12/03 07:31:49;;;;;;;49.95;25.33;;;2.40;99.90;;;;;;5009519;28;20571;-67
2022/12/03 07:34:16;;;;;;;66.72;34.00;;;2.40;99.90;;;;;;5022869;28;20041;-69
2022/12/03 07:36:43;;;;;;;51.40;26.38;;;2.50;99.90;;;;;;5018997;28;20061;-68
2022/12/03 07:39:11;;;;;;;52.15;25.38;;;2.50;99.90;;;;;;4999195;28;20073;-68
2022/12/03 07:41:38;;;;;;;51.88;25.50;;;2.50;99.90;;;;;;5011436;28;20551;-68
2022/12/03 07:44:06;;;;;;;49.17;24.67;;;2.50;99.90;;;;;;5010521;28;20179;-71
2022/12/03 07:46:40;;;;;;;45.70;23.70;;;2.50;99.90;;;;;;5015764;28;20509;-68
2022/12/03 07:49:08;;;;;;;47.40;23.90;;;2.50;99.90;;;;;;5015907;28;20068;-70
2022/12/03 07:51:35;;;;;;;50.33;25.05;;;2.50;99.90;;;;;;4997231;28;20062;-69
2022/12/03 07:54:03;;;;;;;44.97;22.92;;;2.50;99.90;;;;;;5032777;28;20045;-69
2022/12/03 07:56:31;;;;;;;46.40;23.90;;;2.50;99.90;;;;;;5031682;28;20500;-67
2022/12/03 07:58:58;;;;;;;47.47;24.20;;;2.50;99.90;;;;;;5030929;28;20045;-68
2022/12/03 08:01:25;;;;;;;43.55;22.80;;;2.50;99.90;;;;;;5018604;28;20044;-68
2022/12/03 08:03:53;;;;;;;44.53;22.77;;;2.50;99.90;;;;;;5030857;28;20045;-68
2022/12/03 08:06:20;;;;;;;44.17;22.48;;;2.50;99.90;;;;;;5016729;28;20155;-69
2022/12/03 08:08:47;;;;;;;46.85;23.73;;;2.50;99.90;;;;;;4996086;28;20508;-69
2022/12/03 08:11:15;;;;;;;43.08;23.98;;;2.60;99.90;;;;;;5014148;28;20090;-70
2022/12/03 08:13:42;;;;;;;43.40;22.27;;;2.50;99.90;;;;;;5019337;28;20064;-68
2022/12/03 08:16:17;;;;;;;44.15;23.58;;;2.50;99.90;;;;;;5015751;28;20515;-67
2022/12/03 08:18:46;;;;;;;45.08;22.70;;;2.60;99.90;;;;;;5010966;28;20049;-69
2022/12/03 08:21:16;;;;;;;45.10;23.45;;;2.50;99.90;;;;;;5018505;28;20054;-69
2022/12/03 08:23:44;;;;;;;46.95;25.15;;;2.60;99.90;;;;;;5014114;28;20559;-70
2022/12/03 08:26:16;;;;;;;50.60;25.23;;;2.60;99.90;;;;;;5011269;28;20041;-68
2022/12/03 08:28:44;;;;;;;47.22;24.52;;;2.70;99.90;;;;;;5003811;28;20095;-68
2022/12/03 08:31:18;;;;;;;49.28;25.23;;;2.70;99.90;;;;;;5013366;28;20480;-69
2022/12/03 08:33:48;;;;;;;47.70;26.33;;;2.70;99.90;;;;;;5017814;28;20049;-68
2022/12/03 08:36:22;;;;;;;43.75;23.50;;;2.70;99.90;;;;;;5019527;28;20043;-68
2022/12/03 08:38:55;;;;;;;47.15;24.95;;;2.70;99.90;;;;;;5017591;28;20070;-70
2022/12/03 08:44:28;;;;;;;48.13;25.35;;;2.80;99.90;;;;;;5021803;28;20064;-69
2022/12/03 08:47:08;;;;;;;45.70;24.00;;;2.80;99.90;;;;;;4998330;28;20444;-67
2022/12/03 08:49:36;;;;;;;44.15;23.85;;;2.80;99.90;;;;;;4999924;28;20053;-68
2022/12/03 08:52:18;;;;;;;49.17;23.80;;;2.90;99.90;;;;;;5023892;28;20575;-68
2022/12/03 08:54:56;;;;;;;;;;;2.90;99.90;;;;;;5012849;28;22097;-68
2022/12/03 08:57:32;;;;;;;46.67;24.00;;;3.00;99.90;;;;;;5021235;28;19933;-68
2022/12/03 09:00:18;;;;;;;48.15;23.38;;;3.00;99.90;;;;;;5010824;28;20045;-68
2022/12/03 09:02:50;;;;;;;44.67;23.80;;;3.00;99.90;;;;;;5010957;28;20385;-68
2022/12/03 09:05:20;;;;;;;47.03;24.77;;;3.00;99.90;;;;;;5025329;28;20081;-67
2022/12/03 09:08:02;;;;;;;42.33;22.15;;;3.10;99.90;;;;;;4990287;28;20060;-67
2022/12/03 09:10:30;;;;;;;45.65;23.38;;;3.10;99.90;;;;;;5016074;28;20076;-68
2022/12/03 09:12:57;;;;;;;47.22;25.65;;;3.10;99.90;;;;;;5015512;28;20037;-68
2022/12/03 09:15:24;;;;;;;46.22;24.75;;;3.10;99.90;;;;;;5013932;28;20061;-68
2022/12/03 09:17:51;;;;;;;43.42;22.95;;;3.10;99.90;;;;;;5022787;28;20060;-68
2022/12/03 09:20:19;;;;;;;44.85;23.35;;;3.10;99.90;;;;;;5028095;28;20494;-67
2022/12/03 09:22:46;;;;;;;40.60;21.75;;;3.20;99.90;;;;;;5029130;28;20042;-68
2022/12/03 09:25:13;;;;;;;44.17;22.85;;;3.20;99.90;;;;;;5031022;28;20053;-68
2022/12/03 09:27:41;;;;;;;41.13;22.05;;;3.20;99.90;;;;;;5030787;28;20082;-69
2022/12/03 09:30:09;;;;;;;47.67;24.30;;;3.10;99.90;;;;;;5028692;28;20037;-68
2022/12/03 09:32:36;;;;;;;40.40;22.55;;;3.10;99.90;;;;;;5019472;28;20041;-66
2022/12/03 09:35:03;;;;;;;42.55;22.85;;;3.10;99.90;;;;;;5020418;28;20105;-68
2022/12/03 09:37:31;;;;;;;43.92;22.58;;;3.10;99.90;;;;;;5024521;28;20045;-68
2022/12/03 09:40:01;;;;;;;44.95;22.50;;;3.20;99.90;;;;;;5025669;28;20124;-68
2022/12/03 09:42:29;;;;;;;44.85;23.40;;;3.20;99.90;;;;;;5011332;28;20037;-66
2022/12/03 09:44:57;;;;;;;41.60;22.58;;;3.10;99.90;;;;;;5017430;28;20050;-67
2022/12/03 09:47:24;;;;;;;40.60;21.90;;;3.20;99.90;;;;;;5019521;28;20045;-68
2022/12/03 09:49:52;;;;;;;45.45;24.25;;;3.10;99.90;;;;;;5018027;28;20050;-68
2022/12/03 09:52:26;;;;;;;41.92;22.33;;;3.20;99.90;;;;;;5016657;28;20208;-68
2022/12/03 09:54:54;;;;;;;42.20;21.80;;;3.20;99.90;;;;;;5022144;28;20146;-66
2022/12/03 09:57:22;;;;;;;44.85;22.58;;;3.30;99.90;;;;;;5022740;28;20104;-67
2022/12/03 09:59:49;;;;;;;45.08;23.65;;;3.20;99.90;;;;;;5011667;28;20137;-68
2022/12/03 10:02:25;;;;;;;46.67;23.17;;;3.30;99.90;;;;;;5013494;28;20423;-67
2022/12/03 10:04:52;;;;;;;45.22;23.27;;;3.20;99.90;;;;;;5011757;28;20042;-67
2022/12/03 10:07:21;;;;;;;42.63;21.85;;;3.20;99.90;;;;;;5009915;28;20482;-67
2022/12/03 10:09:49;;;;;;;43.58;21.83;;;3.20;99.90;;;;;;5025049;28;20489;-67
2022/12/03 10:12:23;;;;;;;40.20;21.77;;;3.30;99.90;;;;;;5029472;28;20088;-68
2022/12/03 10:14:51;;;;;;;43.05;22.83;;;3.30;99.90;;;;;;5019909;28;20530;-68
2022/12/03 10:17:19;;;;;;;40.92;22.27;;;3.30;99.90;;;;;;5027904;28;20411;-68
2022/12/03 10:19:47;;;;;;;42.35;22.23;;;3.30;99.90;;;;;;5016379;28;20046;-67
2022/12/03 10:22:14;;;;;;;42.15;21.58;;;3.30;99.90;;;;;;5008888;28;20540;-67
2022/12/03 10:24:43;;;;;;;41.22;22.10;;;3.40;99.90;;;;;;5022703;28;20120;-69
2022/12/03 10:27:29;;;;;;;45.55;22.40;;;3.40;99.90;;;;;;5005818;28;20050;-66
2022/12/03 10:29:58;;;;;;;42.17;23.75;;;3.50;99.90;;;;;;5017674;28;20055;-68
2022/12/03 10:32:40;;;;;;;41.00;20.98;;;3.60;99.90;;;;;;5009489;28;20537;-70
2022/12/03 10:35:08;;;;;;;;;;;3.60;99.90;;;;;;5002916;28;20049;-68
2022/12/03 10:37:35;;;;;;;39.15;20.10;;;3.60;99.90;;;;;;5010716;28;20350;-68
2022/12/03 10:40:07;;;;;;;39.70;21.08;;;3.70;99.90;;;;;;5012985;28;20042;-67
2022/12/03 10:42:40;;;;;;;42.35;22.02;;;3.70;99.90;;;;;;5013458;28;20049;-67
2022/12/03 10:45:07;;;;;;;;;;;3.70;99.90;;;;;;5014024;28;20455;-67
2022/12/03 10:47:34;;;;;;;36.50;19.73;;;3.70;99.90;;;;;;5017078;28;19921;-67
2022/12/03 10:50:06;;;;;;;44.58;22.20;;;3.70;99.90;;;;;;5012192;28;20041;-70
2022/12/03 10:52:33;;;;;;;39.27;20.20;;;3.70;99.90;;;;;;5038431;28;20041;-67
2022/12/03 10:55:01;;;;;;;37.70;20.10;;;3.80;99.90;;;;;;4995747;28;20507;-67
2022/12/03 10:57:28;;;;;;;36.30;20.27;;;3.80;99.90;;;;;;5010752;28;20038;-67
2022/12/03 10:59:55;;;;;;;38.00;19.27;;;3.80;99.90;;;;;;5011727;28;20042;-67
2022/12/03 11:02:23;;;;;;;38.40;20.55;;;3.80;99.90;;;;;;5020929;28;20548;-67
2022/12/03 11:04:51;;;;;;;35.67;20.65;;;3.80;99.90;;;;;;5016704;28;20089;-67
2022/12/03 11:07:20;;;;;;;40.45;21.17;;;3.70;99.90;;;;;;5011654;28;20504;-66
2022/12/03 11:09:51;;;;;;;37.08;19.73;;;3.70;99.90;;;;;;5019881;28;20041;-66
2022/12/03 11:12:36;;;;;;;38.55;20.05;;;3.70;99.90;;;;;;5027818;28;20042;-67
2022/12/03 11:15:05;;;;;;;37.30;19.55;;;3.70;99.90;;;;;;5029153;28;20042;-67
2022/12/03 11:17:43;;;;;;;38.00;20.02;;;3.60;99.90;;;;;;5016571;28;20054;-67
2022/12/03 11:20:12;;;;;;;34.20;18.85;;;3.60;99.90;;;;;;5027359;28;20049;-66
2022/12/03 11:22:52;;;;;;;36.13;18.45;;;3.70;99.90;;;;;;5015250;28;20068;-67
2022/12/03 11:25:26;;;;;;;34.50;18.73;;;3.70;99.90;;;;;;5015537;28;20050;-67
2022/12/03 11:28:14;;;;;;;34.60;19.85;;;3.80;99.90;;;;;;5013632;28;20045;-67
2022/12/03 11:30:47;;;;;;;34.13;18.83;;;3.80;99.90;;;;;;5008645;28;20057;-68
2022/12/03 11:33:21;;;;;;;36.08;17.77;;;3.70;99.90;;;;;;5010353;28;20697;-67
2022/12/03 11:36:02;;;;;;;33.03;18.42;;;3.70;99.90;;;;;;5020980;28;20567;-67
2022/12/03 11:38:46;;;;;;;35.95;18.83;;;3.80;99.90;;;;;;5022682;28;20459;-66
2022/12/03 11:41:28;;;;;;;30.42;17.15;;;3.80;99.90;;;;;;5014328;28;20052;-67
2022/12/03 11:43:57;;;;;;;33.13;18.67;;;3.80;99.90;;;;;;5024149;28;20053;-68
2022/12/03 11:46:28;;;;;;;38.75;20.08;;;3.80;99.90;;;;;;5015876;28;20045;-67
2022/12/03 11:48:58;;;;;;;34.85;18.35;;;3.90;99.90;;;;;;5017437;28;20112;-66
2022/12/03 11:51:28;;;;;;;31.77;17.90;;;3.90;99.90;;;;;;5028177;28;20135;-67
2022/12/03 11:53:57;;;;;;;32.33;18.42;;;3.90;99.90;;;;;;5015741;28;20046;-66
2022/12/03 11:56:27;;;;;;;33.60;18.25;;;3.90;99.90;;;;;;5027888;28;20081;-68
2022/12/03 11:59:03;;;;;;;33.75;18.45;;;3.90;99.90;;;;;;4999950;28;20137;-67
2022/12/03 12:01:36;;;;;;;30.55;17.52;;;3.90;99.90;;;;;;5017587;28;20053;-69
2022/12/03 12:04:25;;;;;;;31.75;18.10;;;3.90;99.90;;;;;;5027451;28;20053;-68
2022/12/03 12:06:52;;;;;;;33.38;17.77;;;3.90;99.90;;;;;;5012202;28;20072;-67
2022/12/03 12:09:52;;;;;;;30.48;17.38;;;3.90;99.90;;;;;;5018990;28;20053;-68
2022/12/03 12:12:30;;;;;;;35.53;18.73;;;3.90;99.90;;;;;;5017920;28;20049;-68
2022/12/03 12:14:58;;;;;;;30.95;16.52;;;3.80;99.90;;;;;;5017877;28;20117;-68
2022/12/03 12:17:33;;;;;;;30.55;17.75;;;3.80;99.90;;;;;;5011123;28;20416;-67
2022/12/03 12:20:23;;;;;;;33.30;17.15;;;3.80;99.90;;;;;;5019414;28;20045;-67
2022/12/03 12:22:53;;;;;;;32.25;18.25;;;3.80;99.90;;;;;;5013621;28;20068;-70
2022/12/03 12:25:40;;;;;;;33.22;18.48;;;3.70;99.90;;;;;;5013664;28;20507;-67
2022/12/03 12:28:07;;;;;;;28.20;16.77;;;3.70;99.90;;;;;;5026260;28;20037;-68
2022/12/03 12:30:35;;;;;;;34.13;18.05;;;3.60;99.90;;;;;;5014410;28;20475;-67
2022/12/03 12:33:09;;;;;;;30.35;16.88;;;3.60;99.90;;;;;;5013027;28;20068;-69
2022/12/03 12:35:36;;;;;;;32.78;17.75;;;3.60;99.90;;;;;;5012325;28;20042;-68
2022/12/03 12:38:07;;;;;;;29.77;16.63;;;3.60;99.90;;;;;;5023192;28;20048;-68
2022/12/03 12:40:37;;;;;;;25.55;14.63;;;3.60;99.90;;;;;;5030769;28;20034;-67
2022/12/03 12:43:10;;;;;;;26.73;15.25;;;3.70;99.90;;;;;;5020226;28;20511;-70
2022/12/03 12:45:45;;;;;;;30.83;17.35;;;3.70;99.90;;;;;;5019223;28;20100;-68
2022/12/03 12:48:44;;;;;;;28.67;16.42;;;3.60;99.90;;;;;;5030717;28;20506;-68
2022/12/03 12:51:14;;;;;;;29.48;15.40;;;3.60;99.90;;;;;;5024091;28;20046;-68
2022/12/03 12:53:41;;;;;;;26.45;14.85;;;3.60;99.90;;;;;;4998302;28;20048;-67
2022/12/03 12:56:26;;;;;;;26.67;15.65;;;3.60;99.90;;;;;;5017910;28;20415;-67
2022/12/03 12:58:55;;;;;;;29.38;16.08;;;3.60;99.90;;;;;;5025463;28;20049;-66
2022/12/03 13:01:29;;;;;;;27.52;16.88;;;3.60;99.90;;;;;;5029534;28;20057;-68
2022/12/03 13:03:58;;;;;;;25.35;15.05;;;3.60;99.90;;;;;;5009898;28;20077;-68
2022/12/03 13:06:28;;;;;;;30.15;15.48;;;3.60;99.90;;;;;;5015765;28;20049;-67
2022/12/03 13:09:01;;;;;;;25.75;14.82;;;3.70;99.90;;;;;;5001295;28;20096;-68
2022/12/03 13:11:44;;;;;;;25.80;14.73;;;3.70;99.90;;;;;;5024221;28;20453;-68
2022/12/03 13:14:19;;;;;;;25.63;14.13;;;3.60;99.90;;;;;;5018078;28;20049;-67
2022/12/03 13:16:48;;;;;;;25.05;14.38;;;3.60;99.90;;;;;;5020626;28;20041;-67